createdAt,value
2019-04-27T00:01:57.727Z,85.60
2019-04-27T00:04:28.151Z,84.80
2019-04-27T00:07:02.872Z,84.40
2019-04-27T00:09:34.046Z,83.70
2019-04-27T00:12:16.424Z,84.30
2019-04-27T00:14:43.932Z,85.30
2019-04-27T00:17:14.528Z,83.60
2019-04-27T00:19:50.653Z,84.40
2019-04-27T00:22:23.668Z,83.40
2019-04-27T00:24:55.128Z,84.20
2019-04-27T00:27:23.921Z,84.10
2019-04-27T00:29:53.524Z,86.40
2019-04-27T00:32:23.141Z,84.60
2019-04-27T00:34:53.153Z,84.60
2019-04-27T00:37:35.500Z,84.30
2019-04-27T00:40:07.425Z,85.80
2019-04-27T00:42:36.225Z,83.30
2019-04-27T00:45:06.293Z,83.80
2019-04-27T00:47:35.194Z,83.10
2019-04-27T00:50:06.115Z,83.40
2019-04-27T00:52:34.813Z,85.10
2019-04-27T00:55:04.804Z,83.40
2019-04-27T00:57:34.874Z,83.60
2019-04-27T01:00:18.757Z,84.30
2019-04-27T01:02:48.833Z,83.40
2019-04-27T01:05:19.214Z,83.60
2019-04-27T01:07:48.004Z,83.30
2019-04-27T01:10:17.101Z,84.00
2019-04-27T01:12:45.803Z,84.30
2019-04-27T01:15:14.254Z,83.70
2019-04-27T01:17:42.688Z,83.70
2019-04-27T01:20:11.556Z,84.70
2019-04-27T01:22:40.002Z,84.70
2019-04-27T01:25:08.870Z,84.50
2019-04-27T01:27:55.634Z,85.70
2019-04-27T01:30:25.715Z,84.60
2019-04-27T01:32:54.154Z,85.60
2019-04-27T01:35:22.612Z,84.60
2019-04-27T01:37:51.126Z,84.70
2019-04-27T01:40:19.918Z,84.70
2019-04-27T01:42:48.427Z,85.70
2019-04-27T01:45:18.702Z,84.60
2019-04-27T01:47:47.253Z,85.00
2019-04-27T01:50:15.714Z,84.60
2019-04-27T01:52:44.146Z,84.10
2019-04-27T01:55:12.741Z,84.70
2019-04-27T01:57:41.473Z,85.20
2019-04-27T02:00:29.862Z,85.60
2019-04-27T02:02:59.990Z,85.90
2019-04-27T02:05:33.129Z,86.90
2019-04-27T02:08:01.714Z,87.20
2019-04-27T02:10:30.510Z,86.10
2019-04-27T02:12:59.410Z,86.50
2019-04-27T02:15:29.342Z,86.40
2019-04-27T02:17:59.640Z,87.20
2019-04-27T02:20:28.269Z,87.10
2019-04-27T02:22:58.816Z,88.70
2019-04-27T02:25:29.335Z,87.50
2019-04-27T02:27:59.719Z,87.00
2019-04-27T02:30:46.343Z,87.60
2019-04-27T02:33:33.147Z,88.20
2019-04-27T02:36:02.047Z,87.60
2019-04-27T02:38:30.786Z,88.00
2019-04-27T02:41:00.489Z,87.80
2019-04-27T02:43:40.083Z,88.00
2019-04-27T02:46:09.698Z,87.90
2019-04-27T02:48:54.029Z,87.80
2019-04-27T02:51:11.005Z,88.50
2019-04-27T02:54:00.109Z,88.60
2019-04-27T02:56:30.525Z,88.10
2019-04-27T02:58:59.649Z,86.90
2019-04-27T03:01:30.736Z,88.10
2019-04-27T03:04:00.293Z,87.40
2019-04-27T03:06:30.152Z,87.60
2019-04-27T03:09:00.407Z,87.50
2019-04-27T03:11:30.769Z,88.50
2019-04-27T03:14:04.703Z,88.20
2019-04-27T03:16:34.846Z,89.30
2019-04-27T03:19:14.801Z,89.30
2019-04-27T03:21:53.184Z,88.80
2019-04-27T03:24:23.268Z,88.80
2019-04-27T03:26:53.764Z,89.30
2019-04-27T03:29:23.037Z,89.00
2019-04-27T03:31:53.877Z,88.20
2019-04-27T03:34:22.655Z,88.30
2019-04-27T03:36:51.624Z,87.30
2019-04-27T03:39:20.702Z,87.10
2019-04-27T03:41:50.228Z,87.10
2019-04-27T03:44:19.424Z,86.40
2019-04-27T03:46:49.633Z,86.80
2019-04-27T03:49:29.423Z,88.30
2019-04-27T03:52:06.459Z,87.10
2019-04-27T03:54:45.738Z,88.40
2019-04-27T03:57:19.908Z,88.80
2019-04-27T03:59:59.866Z,88.90
2019-04-27T04:02:30.227Z,88.40
2019-04-27T04:04:59.890Z,88.30
2019-04-27T04:07:30.025Z,89.90
2019-04-27T04:10:00.198Z,88.80
2019-04-27T04:12:30.719Z,89.20
2019-04-27T04:14:59.832Z,88.00
2019-04-27T04:17:30.849Z,86.90
2019-04-27T04:20:01.860Z,88.00
2019-04-27T04:22:30.658Z,88.10
2019-04-27T04:24:59.904Z,87.60
2019-04-27T04:27:29.895Z,86.80
2019-04-27T04:29:59.484Z,87.10
2019-04-27T04:32:29.828Z,89.50
2019-04-27T04:35:13.754Z,88.80
2019-04-27T04:37:42.194Z,88.10
2019-04-27T04:40:11.013Z,87.80
2019-04-27T04:42:41.433Z,87.80
2019-04-27T04:45:14.540Z,88.30
2019-04-27T04:47:54.177Z,87.60
2019-04-27T04:50:22.987Z,88.30
2019-04-27T04:52:51.483Z,87.30
2019-04-27T04:55:20.580Z,88.70
2019-04-27T04:57:49.512Z,89.30
2019-04-27T05:00:19.934Z,90.00
2019-04-27T05:02:49.223Z,88.90
2019-04-27T05:05:19.335Z,89.10
2019-04-27T05:07:48.603Z,88.20
2019-04-27T05:10:18.849Z,89.60
2019-04-27T05:12:48.630Z,88.70
2019-04-27T05:15:19.050Z,88.00
2019-04-27T05:17:48.401Z,88.30
2019-04-27T05:20:24.381Z,88.80
2019-04-27T05:22:49.769Z,89.20
2019-04-27T05:25:18.665Z,88.60
2019-04-27T05:27:49.273Z,87.90
2019-04-27T05:30:19.561Z,86.80
2019-04-27T05:32:49.566Z,87.30
2019-04-27T05:35:19.421Z,87.30
2019-04-27T05:37:49.206Z,87.10
2019-04-27T05:40:18.953Z,87.60
2019-04-27T05:42:50.535Z,88.30
2019-04-27T05:46:03.646Z,87.70
2019-04-27T05:48:33.748Z,88.30
2019-04-27T05:51:02.566Z,87.20
2019-04-27T05:53:31.031Z,88.00
2019-04-27T05:55:59.580Z,87.80
2019-04-27T05:58:29.003Z,87.60
2019-04-27T06:00:59.479Z,86.90
2019-04-27T06:03:29.624Z,86.70
2019-04-27T06:06:01.388Z,88.00
2019-04-27T06:08:29.462Z,88.40
2019-04-27T06:10:59.262Z,88.80
2019-04-27T06:13:30.393Z,86.50
2019-04-27T06:15:59.280Z,86.90
2019-04-27T06:18:29.463Z,86.30
2019-04-27T06:20:59.697Z,86.30
2019-04-27T06:23:28.953Z,85.60
2019-04-27T06:25:57.802Z,85.30
2019-04-27T06:28:26.474Z,85.80
2019-04-27T06:30:54.907Z,85.20
2019-04-27T06:33:31.977Z,85.60
2019-04-27T06:35:54.021Z,85.80
2019-04-27T06:38:22.469Z,85.30
2019-04-27T06:40:50.929Z,84.60
2019-04-27T06:43:19.511Z,85.00
2019-04-27T06:45:48.823Z,84.20
2019-04-27T06:48:19.411Z,84.40
2019-04-27T06:50:50.204Z,83.40
2019-04-27T06:53:19.137Z,84.00
2019-04-27T06:55:49.674Z,84.20
2019-04-27T06:58:19.948Z,83.50
2019-04-27T07:00:49.717Z,82.00
2019-04-27T07:03:18.959Z,81.20
2019-04-27T07:05:48.683Z,82.80
2019-04-27T07:08:18.603Z,83.10
2019-04-27T07:10:48.996Z,83.80
2019-04-27T07:13:19.424Z,83.30
2019-04-27T07:15:48.543Z,82.60
2019-04-27T07:18:18.674Z,83.00
2019-04-27T07:20:48.532Z,81.50
2019-04-27T07:23:18.706Z,80.40
2019-04-27T07:25:48.790Z,82.00
2019-04-27T07:28:18.960Z,80.50
2019-04-27T07:30:48.781Z,81.90
2019-04-27T07:33:18.585Z,79.80
2019-04-27T07:35:48.942Z,80.70
2019-04-27T07:38:19.213Z,80.20
2019-04-27T07:40:48.882Z,79.40
2019-04-27T07:43:25.426Z,79.70
2019-04-27T07:45:53.880Z,78.40
2019-04-27T07:48:22.322Z,79.50
2019-04-27T07:50:50.782Z,79.90
2019-04-27T07:53:19.581Z,79.50
2019-04-27T07:55:49.508Z,78.90
2019-04-27T07:58:20.546Z,78.30
2019-04-27T08:00:49.193Z,77.30
2019-04-27T08:03:19.623Z,79.30
2019-04-27T08:05:49.109Z,78.70
2019-04-27T08:08:18.980Z,78.00
2019-04-27T08:10:50.023Z,78.10
2019-04-27T08:13:19.383Z,79.00
2019-04-27T08:15:49.628Z,78.50
2019-04-27T08:18:19.006Z,78.10
2019-04-27T08:20:49.090Z,77.80
2019-04-27T08:23:19.426Z,78.50
2019-04-27T08:25:48.938Z,78.80
2019-04-27T08:28:38.655Z,76.60
2019-04-27T08:31:14.549Z,76.90
2019-04-27T08:33:42.986Z,76.20
2019-04-27T08:36:11.558Z,77.60
2019-04-27T08:38:40.322Z,76.70
2019-04-27T08:41:09.042Z,76.90
2019-04-27T08:43:38.999Z,77.20
2019-04-27T08:46:08.730Z,77.60
2019-04-27T08:48:39.287Z,79.60
2019-04-27T08:51:09.401Z,78.90
2019-04-27T08:53:39.631Z,79.10
2019-04-27T08:56:09.392Z,77.30
2019-04-27T08:58:38.668Z,77.80
2019-04-27T09:01:09.976Z,78.30
2019-04-27T09:03:39.509Z,77.10
2019-04-27T09:06:09.577Z,78.30
2019-04-27T09:08:41.246Z,77.20
2019-04-27T09:11:18.949Z,77.90
2019-04-27T09:14:05.381Z,78.00
2019-04-27T09:16:59.641Z,78.10
2019-04-27T09:19:34.525Z,77.50
2019-04-27T09:22:13.443Z,76.80
2019-04-27T09:24:34.945Z,72.90
2019-04-27T09:27:04.877Z,72.70
2019-04-27T09:29:33.469Z,74.10
2019-04-27T09:32:02.543Z,73.70
2019-04-27T09:34:31.343Z,72.90
2019-04-27T09:37:00.132Z,74.40
2019-04-27T09:39:28.595Z,75.30
2019-04-27T09:41:57.322Z,77.80
2019-04-27T09:44:26.658Z,76.50
2019-04-27T09:46:56.077Z,78.60
2019-04-27T09:49:26.276Z,79.30
2019-04-27T09:51:55.766Z,82.50
2019-04-27T09:54:27.215Z,83.80
2019-04-27T09:56:56.204Z,81.50
2019-04-27T09:59:26.441Z,83.20
2019-04-27T10:01:55.561Z,83.90
2019-04-27T10:04:26.359Z,83.40
2019-04-27T10:06:56.915Z,82.70
2019-04-27T10:09:26.358Z,81.30
2019-04-27T10:11:55.133Z,84.40
2019-04-27T10:14:23.593Z,82.40
2019-04-27T10:16:52.029Z,80.90
2019-04-27T10:19:28.744Z,78.70
2019-04-27T10:21:50.939Z,77.80
2019-04-27T10:24:19.396Z,77.40
2019-04-27T10:26:47.821Z,77.60
2019-04-27T10:29:16.276Z,77.00
2019-04-27T10:31:46.067Z,77.30
2019-04-27T10:34:14.898Z,78.10
2019-04-27T10:36:43.341Z,76.40
2019-04-27T10:39:13.721Z,75.00
2019-04-27T10:41:42.395Z,78.20
2019-04-27T10:44:11.162Z,75.30
2019-04-27T10:46:39.668Z,76.30
2019-04-27T10:49:08.458Z,75.90
2019-04-27T10:51:36.907Z,72.90
2019-04-27T10:54:06.267Z,72.20
2019-04-27T10:56:36.173Z,72.60
2019-04-27T10:59:07.211Z,70.10
2019-04-27T11:01:36.496Z,71.60
2019-04-27T11:04:26.060Z,69.30
2019-04-27T11:06:58.869Z,71.60
2019-04-27T11:09:27.453Z,70.50
2019-04-27T11:11:57.257Z,70.40
2019-04-27T11:14:26.180Z,70.80
2019-04-27T11:16:56.050Z,71.20
2019-04-27T11:19:26.654Z,69.40
2019-04-27T11:21:55.186Z,68.90
2019-04-27T11:24:23.625Z,67.10
2019-04-27T11:26:52.465Z,66.80
2019-04-27T11:29:20.911Z,66.50
2019-04-27T11:31:49.355Z,69.30
2019-04-27T11:34:18.770Z,67.90
2019-04-27T11:36:55.473Z,68.10
2019-04-27T11:39:26.020Z,67.30
2019-04-27T11:41:54.847Z,67.10
2019-04-27T11:44:23.639Z,68.00
2019-04-27T11:46:52.086Z,67.70
2019-04-27T11:49:20.538Z,68.30
2019-04-27T11:51:48.976Z,67.60
2019-04-27T11:54:17.787Z,68.40
2019-04-27T11:56:47.227Z,67.30
2019-04-27T11:59:15.979Z,69.20
2019-04-27T12:01:45.955Z,67.40
2019-04-27T12:04:16.123Z,68.60
2019-04-27T12:06:46.280Z,67.60
2019-04-27T12:09:15.149Z,68.10
2019-04-27T12:11:43.591Z,66.80
2019-04-27T12:14:12.330Z,68.70
2019-04-27T12:16:41.121Z,67.80
2019-04-27T12:19:09.916Z,68.50
2019-04-27T12:21:38.618Z,70.90
2019-04-27T12:24:07.498Z,67.70
2019-04-27T12:26:37.589Z,69.80
2019-04-27T12:29:07.666Z,69.80
2019-04-27T12:31:43.854Z,71.10
2019-04-27T12:34:11.405Z,70.30
2019-04-27T12:36:39.862Z,73.00
2019-04-27T12:39:11.117Z,74.20
2019-04-27T12:41:39.976Z,71.60
2019-04-27T12:44:08.969Z,71.00
2019-04-27T12:46:37.597Z,69.70
2019-04-27T12:49:06.394Z,68.60
2019-04-27T12:51:35.604Z,67.70
2019-04-27T12:57:41.180Z,66.20
2019-04-27T13:00:11.437Z,66.30
2019-04-27T13:02:39.934Z,63.90
2019-04-27T13:05:09.119Z,63.90
2019-04-27T13:07:37.550Z,66.10
2019-04-27T13:10:08.757Z,63.80
2019-04-27T13:12:37.561Z,65.10
2019-04-27T13:15:08.493Z,65.10
2019-04-27T13:17:37.298Z,65.50
2019-04-27T13:20:07.613Z,65.60
2019-04-27T13:22:37.237Z,65.70
2019-04-27T13:25:07.979Z,66.00
2019-04-27T13:27:36.789Z,65.60
2019-04-27T13:30:07.659Z,63.80
2019-04-27T13:32:39.169Z,65.50
2019-04-27T13:35:08.253Z,66.80
2019-04-27T13:37:40.833Z,66.30
2019-04-27T13:40:10.517Z,68.00
2019-04-27T13:42:57.244Z,65.70
2019-04-27T13:45:27.693Z,67.30
2019-04-27T13:47:57.785Z,65.10
2019-04-27T13:50:40.117Z,64.40
2019-04-27T13:53:08.577Z,63.20
2019-04-27T13:55:37.005Z,64.10
2019-04-27T13:58:05.780Z,65.00
2019-04-27T14:00:34.833Z,64.30
2019-04-27T14:03:05.154Z,64.80
2019-04-27T14:05:34.002Z,62.10
2019-04-27T14:08:02.511Z,62.50
2019-04-27T14:10:30.966Z,61.80
2019-04-27T14:12:59.409Z,63.50
2019-04-27T14:15:28.872Z,64.50
2019-04-27T14:17:59.187Z,63.50
2019-04-27T14:20:28.730Z,63.90
2019-04-27T14:23:11.414Z,58.70
2019-04-27T14:25:39.875Z,58.30
2019-04-27T14:28:08.649Z,60.10
2019-04-27T14:30:38.117Z,59.20
2019-04-27T14:33:08.482Z,56.70
2019-04-27T14:35:37.143Z,59.30
2019-04-27T14:38:05.580Z,57.10
2019-04-27T14:40:34.298Z,55.20
2019-04-27T14:43:02.748Z,56.20
2019-04-27T14:45:31.478Z,58.00
2019-04-27T14:47:59.934Z,59.00
2019-04-27T14:50:28.694Z,62.20
2019-04-27T14:52:58.883Z,61.70
2019-04-27T14:55:28.273Z,59.50
2019-04-27T14:57:58.641Z,58.70
2019-04-27T15:00:28.803Z,58.00
2019-04-27T15:02:59.136Z,55.60
2019-04-27T15:05:28.170Z,55.00
2019-04-27T15:07:56.675Z,54.50
2019-04-27T15:10:27.056Z,55.60
2019-04-27T15:12:55.727Z,58.90
2019-04-27T15:15:24.182Z,60.60
2019-04-27T15:17:52.625Z,61.20
2019-04-27T15:20:30.658Z,62.30
2019-04-27T15:23:00.127Z,62.40
2019-04-27T15:25:35.028Z,62.20
2019-04-27T15:28:01.423Z,62.70
2019-04-27T15:30:48.439Z,61.30
2019-04-27T15:33:34.566Z,62.70
2019-04-27T15:36:14.596Z,63.10
2019-04-27T15:38:47.009Z,64.40
2019-04-27T15:41:30.452Z,63.80
2019-04-27T15:44:01.320Z,65.40
2019-04-27T15:46:33.578Z,67.50
2019-04-27T15:48:58.923Z,68.90
2019-04-27T15:51:28.290Z,70.90
2019-04-27T15:53:58.684Z,71.50
2019-04-27T15:56:30.472Z,72.60
2019-04-27T15:59:00.016Z,76.10
2019-04-27T16:01:29.715Z,81.30
2019-04-27T16:03:58.404Z,83.00
2019-04-27T16:06:28.742Z,84.00
2019-04-27T16:08:58.942Z,84.90
2019-04-27T16:11:27.610Z,90.70
2019-04-27T16:13:56.087Z,90.30
2019-04-27T16:16:29.200Z,90.30
2019-04-27T16:18:55.473Z,92.00
2019-04-27T16:21:31.506Z,90.80
2019-04-27T16:24:00.327Z,90.30
2019-04-27T16:26:29.130Z,92.00
2019-04-27T16:28:58.065Z,91.70
2019-04-27T16:31:31.499Z,91.70
2019-04-27T16:33:59.246Z,92.10
2019-04-27T16:36:28.845Z,93.10
2019-04-27T16:39:03.590Z,93.90
2019-04-27T16:41:32.964Z,93.80
2019-04-27T16:44:06.728Z,90.30
2019-04-27T16:46:34.845Z,91.60
2019-04-27T16:49:07.391Z,91.70
2019-04-27T16:51:36.965Z,91.80
2019-04-27T16:54:04.462Z,91.90
2019-04-27T16:56:33.214Z,93.50
2019-04-27T16:59:20.784Z,92.60
2019-04-27T17:01:32.328Z,92.10
2019-04-27T17:04:00.838Z,92.70
2019-04-27T17:06:29.840Z,92.60
2019-04-27T17:09:05.461Z,92.10
2019-04-27T17:11:29.825Z,93.60
2019-04-27T17:14:15.442Z,92.40
2019-04-27T17:16:45.915Z,92.30
2019-04-27T17:19:16.009Z,92.60
2019-04-27T17:21:44.736Z,92.90
2019-04-27T17:24:15.154Z,92.20
2019-04-27T17:26:43.801Z,91.20
2019-04-27T17:29:16.264Z,91.60
2019-04-27T17:31:46.185Z,92.50
2019-04-27T17:34:18.379Z,91.10
2019-04-27T17:36:48.478Z,91.10
2019-04-27T17:39:19.244Z,91.50
2019-04-27T17:41:49.126Z,91.70
2019-04-27T17:44:19.190Z,90.80
2019-04-27T17:46:47.661Z,92.00
2019-04-27T17:49:18.904Z,91.50
2019-04-27T17:51:48.420Z,90.60
2019-04-27T17:54:18.172Z,92.10
2019-04-27T17:56:49.567Z,91.00
2019-04-27T17:59:20.690Z,92.60
2019-04-27T18:01:49.463Z,91.50
2019-04-27T18:04:18.538Z,91.20
2019-04-27T18:06:48.371Z,91.30
2019-04-27T18:09:18.750Z,91.50
2019-04-27T18:11:49.925Z,88.70
2019-04-27T18:14:19.243Z,89.60
2019-04-27T18:16:48.364Z,86.80
2019-04-27T18:19:28.282Z,88.10
2019-04-27T18:22:00.859Z,84.70
2019-04-27T18:24:30.398Z,86.70
2019-04-27T18:27:04.512Z,87.40
2019-04-27T18:29:33.021Z,89.80
2019-04-27T18:32:01.926Z,90.60
2019-04-27T18:34:30.407Z,88.20
2019-04-27T18:36:59.179Z,90.10
2019-04-27T18:39:27.607Z,87.30
2019-04-27T18:41:56.067Z,90.40
2019-04-27T18:44:30.539Z,89.60
2019-04-27T18:46:58.797Z,85.40
2019-04-27T18:49:30.343Z,85.80
2019-04-27T18:52:08.704Z,87.20
2019-04-27T18:54:38.359Z,89.20
2019-04-27T18:57:10.903Z,86.00
2019-04-27T18:59:38.090Z,84.80
2019-04-27T19:02:08.476Z,87.70
2019-04-27T19:04:37.098Z,87.90
2019-04-27T19:07:05.670Z,88.60
2019-04-27T19:09:34.122Z,87.70
2019-04-27T19:12:02.568Z,84.60
2019-04-27T19:14:31.011Z,87.70
2019-04-27T19:16:59.447Z,84.80
2019-04-27T19:19:28.218Z,84.10
2019-04-27T19:21:58.765Z,85.20
2019-04-27T19:24:28.179Z,85.30
2019-04-27T19:26:58.816Z,89.10
2019-04-27T19:29:29.313Z,83.60
2019-04-27T19:31:59.741Z,83.70
2019-04-27T19:34:28.620Z,84.10
2019-04-27T19:36:59.087Z,86.50
2019-04-27T19:39:28.620Z,85.30
2019-04-27T19:42:01.490Z,83.20
2019-04-27T19:44:29.174Z,84.80
2019-04-27T19:46:59.952Z,84.20
2019-04-27T19:49:31.279Z,83.30
2019-04-27T19:51:58.885Z,82.40
2019-04-27T19:54:29.862Z,83.70
2019-04-27T19:56:59.528Z,81.50
2019-04-27T19:59:29.587Z,85.40
2019-04-27T20:01:59.806Z,82.90
2019-04-27T20:04:35.410Z,84.00
2019-04-27T20:07:03.974Z,81.60
2019-04-27T20:09:34.362Z,81.30
2019-04-27T20:12:05.063Z,84.50
2019-04-27T20:14:34.974Z,81.50
2019-04-27T20:17:03.488Z,85.10
2019-04-27T20:19:32.397Z,83.10
2019-04-27T20:22:01.190Z,82.70
2019-04-27T20:24:31.098Z,84.20
2019-04-27T20:27:00.675Z,79.30
2019-04-27T20:29:31.720Z,81.90
2019-04-27T20:32:01.206Z,83.70
2019-04-27T20:34:31.062Z,81.30
2019-04-27T20:37:01.287Z,79.60
2019-04-27T20:39:30.241Z,81.40
2019-04-27T20:41:58.678Z,80.20
2019-04-27T20:44:27.106Z,80.80
2019-04-27T20:46:55.697Z,79.00
2019-04-27T20:49:24.467Z,81.70
2019-04-27T20:51:54.579Z,79.60
2019-04-27T20:54:23.479Z,78.70
2019-04-27T20:56:53.962Z,77.50
2019-04-27T20:59:22.810Z,79.80
2019-04-27T21:01:51.602Z,79.50
2019-04-27T21:04:22.036Z,79.60
2019-04-27T21:06:52.462Z,81.70
2019-04-27T21:09:21.383Z,80.70
2019-04-27T21:11:50.258Z,81.70
2019-04-27T21:14:19.046Z,79.60
2019-04-27T21:16:48.145Z,77.90
2019-04-27T21:19:16.594Z,80.40
2019-04-27T21:21:45.036Z,80.60
2019-04-27T21:24:13.833Z,80.10
2019-04-27T21:26:42.333Z,79.10
2019-04-27T21:29:11.672Z,81.40
2019-04-27T21:31:41.818Z,80.00
2019-04-27T21:34:10.445Z,79.80
2019-04-27T21:36:40.864Z,81.20
2019-04-27T21:39:09.206Z,82.00
2019-04-27T21:41:37.649Z,84.70
2019-04-27T21:44:06.407Z,83.60
2019-04-27T21:46:34.993Z,84.60
2019-04-27T21:49:03.468Z,84.90
2019-04-27T21:51:34.117Z,86.50
2019-04-27T21:54:10.383Z,86.50
2019-04-27T21:56:38.830Z,86.40
2019-04-27T21:59:07.312Z,83.80
2019-04-27T22:01:36.248Z,86.10
2019-04-27T22:04:05.090Z,85.20
2019-04-27T22:06:33.542Z,85.10
2019-04-27T22:09:02.323Z,83.30
2019-04-27T22:11:31.933Z,86.20
2019-04-27T22:14:01.358Z,85.50
2019-04-27T22:16:31.512Z,85.70
2019-04-27T22:19:01.792Z,84.80
2019-04-27T22:21:31.673Z,83.60
2019-04-27T22:24:05.080Z,83.30
2019-04-27T22:26:33.509Z,82.50
2019-04-27T22:29:02.038Z,79.80
2019-04-27T22:31:31.327Z,82.00
2019-04-27T22:34:01.808Z,84.90
2019-04-27T22:36:30.386Z,82.60
2019-04-27T22:39:01.590Z,82.10
2019-04-27T22:41:32.086Z,83.30
2019-04-27T22:44:02.242Z,81.10
2019-04-27T22:46:35.113Z,84.60
2019-04-27T22:49:03.637Z,82.80
2019-04-27T22:51:32.069Z,84.90
2019-04-27T22:54:01.331Z,84.90
2019-04-27T22:56:32.132Z,85.70
2019-04-27T22:59:14.636Z,86.00
2019-04-27T23:02:01.568Z,85.40
2019-04-27T23:04:32.577Z,83.40
2019-04-27T23:07:02.768Z,83.30
2019-04-27T23:09:31.410Z,81.80
2019-04-27T23:12:01.703Z,81.00
2019-04-27T23:14:31.298Z,85.90
2019-04-27T23:17:03.167Z,81.70
2019-04-27T23:19:31.802Z,82.90
2019-04-27T23:22:00.759Z,82.60
2019-04-27T23:24:30.985Z,82.70
2019-04-27T23:26:59.589Z,80.60
2019-04-27T23:29:28.019Z,83.90
2019-04-27T23:32:01.651Z,80.90
2019-04-27T23:34:31.524Z,82.80
2019-04-27T23:37:00.065Z,82.40
2019-04-27T23:39:28.519Z,81.40
2019-04-27T23:41:57.258Z,82.10
2019-04-27T23:44:25.776Z,82.20
2019-04-27T23:46:54.212Z,82.60
2019-04-27T23:49:22.664Z,81.40
2019-04-27T23:51:55.411Z,81.70
2019-04-27T23:54:23.857Z,81.30
2019-04-27T23:56:52.578Z,81.90
2019-04-27T23:59:24.965Z,83.20
